createdAt,value
2022-12-05T00:01:11.442Z,10.03
2022-12-05T00:03:38.261Z,9.94
2022-12-05T00:06:05.780Z,9.88
2022-12-05T00:08:32.516Z,9.92
2022-12-05T00:10:59.547Z,9.87
2022-12-05T00:13:26.375Z,9.99
2022-12-05T00:15:53.108Z,9.99
2022-12-05T00:18:19.938Z,9.98
2022-12-05T00:20:48.530Z,9.96
2022-12-05T00:23:15.323Z,9.87
2022-12-05T00:25:42.211Z,9.97
2022-12-05T00:28:08.930Z,10.02
2022-12-05T00:30:35.654Z,9.99
2022-12-05T00:33:03.035Z,10.03
2022-12-05T00:35:29.730Z,10.12
2022-12-05T00:37:56.671Z,10.21
2022-12-05T00:40:23.551Z,10.26
2022-12-05T00:42:52.404Z,10.31
2022-12-05T00:45:19.377Z,10.40
2022-12-05T00:47:46.220Z,10.44
2022-12-05T00:50:12.939Z,10.39
2022-12-05T00:52:39.642Z,10.34
2022-12-05T00:55:06.929Z,10.41
2022-12-05T00:57:33.631Z,10.44
2022-12-05T01:00:00.433Z,10.40
2022-12-05T01:02:27.311Z,10.35
2022-12-05T01:04:54.536Z,10.43
2022-12-05T01:07:21.280Z,10.39
2022-12-05T01:09:48.133Z,10.45
2022-12-05T01:12:14.826Z,10.55
2022-12-05T01:14:41.535Z,10.42
2022-12-05T01:17:08.417Z,10.47
2022-12-05T01:19:35.317Z,10.50
2022-12-05T01:22:02.136Z,10.40
2022-12-05T01:24:30.080Z,10.54
2022-12-05T01:26:57.735Z,10.48
2022-12-05T01:29:25.684Z,10.51
2022-12-05T01:31:53.155Z,10.62
2022-12-05T01:34:20.033Z,10.56
2022-12-05T01:36:47.494Z,10.63
2022-12-05T01:39:14.860Z,10.67
2022-12-05T01:41:47.304Z,10.70
2022-12-05T01:44:16.316Z,10.71
2022-12-05T01:46:51.538Z,10.71
2022-12-05T01:49:27.299Z,10.72
2022-12-05T01:51:59.036Z,10.63
2022-12-05T01:54:25.916Z,10.68
2022-12-05T01:56:57.724Z,10.71
2022-12-05T01:59:27.385Z,10.63
2022-12-05T02:01:54.648Z,10.65
2022-12-05T02:04:21.710Z,10.60
2022-12-05T02:06:48.535Z,10.70
2022-12-05T02:09:15.593Z,10.61
2022-12-05T02:11:55.533Z,10.63
2022-12-05T02:14:22.224Z,10.68
2022-12-05T02:16:57.215Z,10.64
2022-12-05T02:19:55.867Z,10.57
2022-12-05T02:22:38.682Z,10.57
2022-12-05T02:25:37.803Z,10.51
2022-12-05T02:28:29.248Z,10.60
2022-12-05T02:31:03.222Z,10.61
2022-12-05T02:33:44.212Z,10.58
2022-12-05T02:36:39.387Z,10.55
2022-12-05T02:39:18.727Z,10.74
2022-12-05T02:41:58.000Z,10.66
2022-12-05T02:44:41.625Z,10.62
2022-12-05T02:47:09.953Z,10.63
2022-12-05T02:49:37.897Z,10.67
2022-12-05T02:52:09.138Z,10.65
2022-12-05T02:54:39.612Z,10.48
2022-12-05T02:57:08.719Z,10.62
2022-12-05T02:59:35.704Z,10.54
2022-12-05T03:02:02.443Z,10.61
2022-12-05T03:04:31.512Z,10.68
2022-12-05T03:07:06.990Z,10.65
2022-12-05T03:09:46.901Z,10.61
2022-12-05T03:12:20.552Z,10.66
2022-12-05T03:14:56.360Z,10.55
2022-12-05T03:17:26.464Z,10.46
2022-12-05T03:20:02.801Z,10.33
2022-12-05T03:22:41.346Z,10.22
2022-12-05T03:25:09.911Z,10.07
2022-12-05T03:28:15.021Z,10.04
2022-12-05T03:30:42.778Z,9.92
2022-12-05T03:33:20.271Z,9.82
2022-12-05T03:36:03.517Z,9.75
2022-12-05T03:38:40.463Z,9.76
2022-12-05T03:41:14.842Z,9.85
2022-12-05T03:44:01.525Z,9.81
2022-12-05T03:46:35.547Z,9.89
2022-12-05T03:49:13.489Z,9.92
2022-12-05T03:52:07.471Z,10.01
2022-12-05T03:54:57.705Z,10.16
2022-12-05T03:58:02.451Z,10.18
2022-12-05T04:00:36.448Z,10.31
2022-12-05T04:03:25.242Z,10.33
2022-12-05T04:05:58.047Z,10.46
2022-12-05T04:08:50.617Z,10.43
2022-12-05T04:11:21.493Z,10.51
2022-12-05T04:13:55.427Z,10.57
2022-12-05T04:17:01.909Z,10.56
2022-12-05T04:20:11.291Z,10.55
2022-12-05T04:22:39.752Z,10.50
2022-12-05T04:25:30.024Z,10.60
2022-12-05T04:28:05.838Z,10.50
2022-12-05T04:30:39.626Z,10.49
2022-12-05T04:33:17.741Z,10.57
2022-12-05T04:35:48.353Z,10.58
2022-12-05T04:38:25.173Z,10.32
2022-12-05T04:41:03.190Z,10.27
2022-12-05T04:43:37.025Z,10.16
2022-12-05T04:46:07.288Z,10.02
2022-12-05T04:48:35.752Z,9.83
2022-12-05T04:51:04.899Z,10.03
2022-12-05T04:53:33.490Z,9.92
2022-12-05T04:56:04.509Z,9.92
2022-12-05T04:58:32.475Z,9.93
2022-12-05T05:01:25.002Z,9.96
2022-12-05T05:03:58.508Z,9.97
2022-12-05T05:06:26.705Z,10.02
2022-12-05T05:08:56.519Z,9.94
2022-12-05T05:11:25.156Z,10.08
2022-12-05T05:13:52.588Z,10.16
2022-12-05T05:16:31.468Z,10.25
2022-12-05T05:18:58.224Z,10.18
2022-12-05T05:21:26.380Z,10.47
2022-12-05T05:23:54.128Z,10.46
2022-12-05T05:26:21.746Z,10.54
2022-12-05T05:28:49.449Z,10.55
2022-12-05T05:31:17.971Z,10.65
2022-12-05T05:33:48.326Z,10.75
2022-12-05T05:36:15.047Z,10.52
2022-12-05T05:38:45.086Z,10.77
2022-12-05T05:41:17.687Z,10.76
2022-12-05T05:43:45.172Z,10.80
2022-12-05T05:46:13.029Z,10.79
2022-12-05T05:48:40.294Z,10.77
2022-12-05T05:51:08.718Z,10.81
2022-12-05T05:53:35.719Z,10.85
2022-12-05T05:56:25.420Z,10.77
2022-12-05T05:59:00.565Z,10.83
2022-12-05T06:01:28.489Z,10.88
2022-12-05T06:03:55.392Z,10.90
2022-12-05T06:06:23.156Z,10.85
2022-12-05T06:08:49.979Z,10.76
2022-12-05T06:11:25.268Z,10.87
2022-12-05T06:13:53.791Z,10.81
2022-12-05T06:16:21.464Z,10.86
2022-12-05T06:18:49.917Z,10.85
2022-12-05T06:21:16.807Z,10.99
2022-12-05T06:23:43.883Z,10.99
2022-12-05T06:26:13.427Z,11.08
2022-12-05T06:28:40.465Z,11.10
2022-12-05T06:31:10.031Z,11.15
2022-12-05T06:33:37.580Z,11.13
2022-12-05T06:36:24.647Z,11.11
2022-12-05T06:38:51.371Z,11.19
2022-12-05T06:41:20.159Z,11.10
2022-12-05T06:43:47.336Z,11.02
2022-12-05T06:46:15.914Z,10.93
2022-12-05T06:48:42.775Z,11.01
2022-12-05T06:51:11.745Z,11.06
2022-12-05T06:53:39.897Z,11.04
2022-12-05T06:56:11.613Z,11.01
2022-12-05T06:58:38.690Z,11.12
2022-12-05T07:01:24.091Z,11.17
2022-12-05T07:03:51.625Z,11.17
2022-12-05T07:06:18.442Z,11.22
2022-12-05T07:08:45.237Z,11.05
2022-12-05T07:11:12.255Z,11.06
2022-12-05T07:13:39.031Z,11.07
2022-12-05T07:16:07.559Z,11.03
2022-12-05T07:18:36.111Z,11.25
2022-12-05T07:21:13.942Z,11.23
2022-12-05T07:23:45.820Z,11.10
2022-12-05T07:26:15.519Z,11.27
2022-12-05T07:28:42.616Z,11.25
2022-12-05T07:31:12.484Z,11.19
2022-12-05T07:33:39.252Z,11.20
2022-12-05T07:36:10.205Z,11.24
2022-12-05T07:38:37.391Z,11.10
2022-12-05T07:41:13.339Z,11.15
2022-12-05T07:43:41.725Z,11.12
2022-12-05T07:46:11.541Z,10.93
2022-12-05T07:48:39.105Z,10.93
2022-12-05T07:51:07.627Z,10.94
2022-12-05T07:53:34.719Z,10.98
2022-12-05T07:56:03.056Z,10.97
2022-12-05T07:58:30.463Z,11.01
2022-12-05T08:00:58.500Z,10.78
2022-12-05T08:03:25.384Z,10.99
2022-12-05T08:05:52.164Z,11.08
2022-12-05T08:08:18.941Z,10.95
2022-12-05T08:10:45.826Z,11.03
2022-12-05T08:13:13.866Z,10.87
2022-12-05T08:15:40.595Z,10.76
2022-12-05T08:18:07.447Z,10.85
2022-12-05T08:20:34.347Z,10.84
2022-12-05T08:23:01.059Z,10.93
2022-12-05T08:25:27.855Z,10.81
2022-12-05T08:27:54.579Z,10.81
2022-12-05T08:30:21.317Z,10.96
2022-12-05T08:32:48.118Z,10.97
2022-12-05T08:35:15.142Z,10.97
2022-12-05T08:37:41.880Z,10.93
2022-12-05T08:40:09.074Z,11.12
2022-12-05T08:42:35.825Z,11.11
2022-12-05T08:45:03.641Z,11.05
2022-12-05T08:47:32.370Z,11.09
2022-12-05T08:49:59.698Z,11.12
2022-12-05T08:52:26.680Z,11.00
2022-12-05T08:54:53.460Z,11.02
2022-12-05T08:57:20.197Z,11.02
2022-12-05T08:59:46.906Z,11.11
2022-12-05T09:02:13.946Z,10.89
2022-12-05T09:04:40.732Z,10.38
2022-12-05T09:07:08.390Z,10.25
2022-12-05T09:09:35.209Z,10.28
2022-12-05T09:12:01.906Z,10.36
2022-12-05T09:14:35.056Z,10.42
2022-12-05T09:17:01.950Z,10.59
2022-12-05T09:19:29.007Z,10.80
2022-12-05T09:21:57.179Z,10.95
2022-12-05T09:24:24.373Z,11.04
2022-12-05T09:26:51.584Z,11.15
2022-12-05T09:29:18.466Z,11.21
2022-12-05T09:31:48.313Z,11.23
2022-12-05T09:34:15.841Z,11.25
2022-12-05T09:36:43.852Z,11.27
2022-12-05T09:39:11.064Z,11.35
2022-12-05T09:42:04.970Z,11.61
2022-12-05T09:44:48.263Z,11.78
2022-12-05T09:47:24.084Z,11.87
2022-12-05T09:50:02.592Z,11.83
2022-12-05T09:52:37.764Z,11.85
2022-12-05T09:55:16.815Z,12.00
2022-12-05T09:57:56.650Z,12.16
2022-12-05T10:00:24.000Z,12.34
2022-12-05T10:03:12.414Z,12.37
2022-12-05T10:05:53.332Z,12.49
2022-12-05T10:08:22.942Z,12.34
2022-12-05T10:11:28.282Z,12.37
2022-12-05T10:14:08.924Z,12.26
2022-12-05T10:16:58.825Z,12.23
2022-12-05T10:19:31.968Z,12.25
2022-12-05T10:22:04.634Z,12.18
2022-12-05T10:24:43.318Z,12.37
2022-12-05T10:27:20.234Z,12.35
2022-12-05T10:30:13.764Z,12.39
2022-12-05T10:32:48.296Z,12.33
2022-12-05T10:35:22.284Z,12.44
2022-12-05T10:37:53.336Z,12.38
2022-12-05T10:40:20.910Z,12.16
2022-12-05T10:42:49.326Z,12.22
2022-12-05T10:45:20.756Z,12.16
2022-12-05T10:47:49.123Z,12.13
2022-12-05T10:50:38.680Z,12.20
2022-12-05T10:53:07.156Z,12.10
2022-12-05T10:55:41.200Z,12.07
2022-12-05T10:58:17.848Z,12.13
2022-12-05T11:00:51.844Z,12.32
2022-12-05T11:03:27.246Z,12.14
2022-12-05T11:05:56.774Z,12.22
2022-12-05T11:08:48.264Z,12.27
2022-12-05T11:11:23.888Z,12.23
2022-12-05T11:14:04.503Z,12.25
2022-12-05T11:16:33.719Z,12.12
2022-12-05T11:19:24.297Z,12.11
2022-12-05T11:21:51.959Z,12.18
2022-12-05T11:24:38.987Z,12.11
2022-12-05T11:27:18.222Z,12.12
2022-12-05T11:29:55.288Z,12.28
2022-12-05T11:32:28.288Z,12.44
2022-12-05T11:35:13.195Z,12.47
2022-12-05T11:37:59.335Z,12.38
2022-12-05T11:40:59.278Z,12.41
2022-12-05T11:43:47.824Z,12.41
2022-12-05T11:46:36.561Z,12.45
2022-12-05T11:49:32.642Z,12.40
2022-12-05T11:52:14.172Z,12.36
2022-12-05T11:55:06.546Z,12.40
2022-12-05T11:57:52.797Z,12.26
2022-12-05T12:00:29.264Z,12.16
2022-12-05T12:03:02.223Z,12.12
2022-12-05T12:05:53.504Z,12.00
2022-12-05T12:08:26.329Z,11.81
2022-12-05T12:10:59.857Z,11.70
2022-12-05T12:13:52.350Z,11.27
2022-12-05T12:16:45.520Z,11.09
2022-12-05T12:20:03.430Z,10.99
2022-12-05T12:22:39.076Z,11.11
2022-12-05T12:25:31.970Z,11.30
2022-12-05T12:28:32.448Z,11.36
2022-12-05T12:31:07.970Z,11.41
2022-12-05T12:33:41.948Z,11.43
2022-12-05T12:36:26.705Z,11.43
2022-12-05T12:39:30.657Z,11.04
2022-12-05T12:42:09.873Z,10.94
2022-12-05T12:45:02.292Z,10.83
2022-12-05T12:48:03.120Z,10.69
2022-12-05T12:50:38.964Z,10.62
2022-12-05T12:53:10.041Z,10.55
2022-12-05T12:56:08.690Z,10.53
2022-12-05T12:58:54.439Z,10.59
2022-12-05T13:01:30.364Z,10.90
2022-12-05T13:04:12.534Z,11.02
2022-12-05T13:06:45.312Z,11.26
2022-12-05T13:09:16.949Z,11.42
2022-12-05T13:11:45.756Z,11.62
2022-12-05T13:14:16.168Z,11.76
2022-12-05T13:16:49.172Z,11.99
2022-12-05T13:19:46.883Z,12.09
2022-12-05T13:22:15.403Z,12.33
2022-12-05T13:24:42.941Z,12.49
2022-12-05T13:27:19.379Z,12.61
2022-12-05T13:29:51.180Z,12.66
2022-12-05T13:32:44.254Z,12.67
2022-12-05T13:35:12.095Z,12.89
2022-12-05T13:38:05.807Z,12.93
2022-12-05T13:40:53.771Z,12.78
2022-12-05T13:43:28.563Z,12.68
2022-12-05T13:46:05.602Z,12.72
2022-12-05T13:48:36.159Z,12.84
2022-12-05T13:51:22.922Z,12.85
2022-12-05T13:54:01.284Z,12.72
2022-12-05T13:56:47.859Z,12.77
2022-12-05T13:59:53.297Z,12.83
2022-12-05T14:02:41.947Z,12.65
2022-12-05T14:05:14.907Z,12.70
2022-12-05T14:07:47.158Z,12.80
2022-12-05T14:10:17.162Z,12.85
2022-12-05T14:12:49.008Z,12.87
2022-12-05T14:15:35.664Z,12.85
2022-12-05T14:18:10.627Z,12.84
2022-12-05T14:21:04.639Z,12.93
2022-12-05T14:23:56.155Z,12.90
2022-12-05T14:26:41.714Z,12.74
2022-12-05T14:29:22.642Z,12.94
2022-12-05T14:32:04.731Z,13.07
2022-12-05T14:34:35.347Z,13.04
2022-12-05T14:37:17.181Z,13.02
2022-12-05T14:39:53.984Z,13.01
2022-12-05T14:42:35.920Z,13.03
2022-12-05T14:45:37.501Z,13.00
2022-12-05T14:48:28.609Z,13.03
2022-12-05T14:50:57.090Z,13.01
2022-12-05T14:53:32.509Z,13.13
2022-12-05T14:56:16.310Z,13.03
2022-12-05T14:58:51.451Z,13.04
2022-12-05T15:01:35.551Z,12.99
2022-12-05T15:04:05.258Z,12.95
2022-12-05T15:06:57.945Z,12.92
2022-12-05T15:09:38.506Z,13.12
2022-12-05T15:12:12.425Z,13.18
2022-12-05T15:14:48.362Z,13.08
2022-12-05T15:17:22.593Z,13.13
2022-12-05T15:20:00.455Z,13.18
2022-12-05T15:22:29.288Z,13.00
2022-12-05T15:24:56.210Z,12.92
2022-12-05T15:27:25.385Z,12.85
2022-12-05T15:29:55.048Z,12.62
2022-12-05T15:32:27.446Z,12.77
2022-12-05T15:34:58.523Z,12.93
2022-12-05T15:37:48.318Z,12.78
2022-12-05T15:40:18.120Z,12.91
2022-12-05T15:42:50.523Z,12.89
2022-12-05T15:45:24.162Z,12.81
2022-12-05T15:47:56.825Z,12.83
2022-12-05T15:50:23.470Z,12.78
2022-12-05T15:53:14.341Z,12.67
2022-12-05T15:56:05.100Z,12.66
2022-12-05T15:58:37.768Z,12.70
2022-12-05T16:01:09.418Z,12.76
2022-12-05T16:03:42.381Z,12.80
2022-12-05T16:06:20.445Z,12.73
2022-12-05T16:08:49.571Z,12.76
2022-12-05T16:11:17.760Z,12.64
2022-12-05T16:13:47.975Z,12.65
2022-12-05T16:16:16.914Z,12.37
2022-12-05T16:18:53.000Z,12.53
2022-12-05T16:21:39.301Z,12.49
2022-12-05T16:24:14.132Z,12.59
2022-12-05T16:26:41.160Z,12.53
2022-12-05T16:29:26.279Z,12.44
2022-12-05T16:31:56.475Z,12.44
2022-12-05T16:34:23.995Z,12.27
2022-12-05T16:36:52.943Z,12.35
2022-12-05T16:39:21.395Z,12.50
2022-12-05T16:41:50.193Z,12.28
2022-12-05T16:44:28.851Z,12.37
2022-12-05T16:46:56.806Z,12.35
2022-12-05T16:49:33.609Z,12.31
2022-12-05T16:52:00.346Z,12.46
2022-12-05T16:54:27.239Z,12.41
2022-12-05T16:56:54.612Z,12.46
2022-12-05T16:59:31.483Z,12.42
2022-12-05T17:01:58.602Z,12.45
2022-12-05T17:04:25.421Z,12.49
2022-12-05T17:06:52.160Z,12.52
2022-12-05T17:09:19.079Z,12.53
2022-12-05T17:11:49.808Z,12.50
2022-12-05T17:14:18.328Z,12.60
2022-12-05T17:16:45.586Z,12.68
2022-12-05T17:19:13.275Z,12.68
2022-12-05T17:21:44.803Z,12.64
2022-12-05T17:24:19.032Z,12.69
2022-12-05T17:26:47.470Z,12.67
2022-12-05T17:29:14.203Z,12.68
2022-12-05T17:31:41.137Z,12.63
2022-12-05T17:34:17.068Z,12.61
2022-12-05T17:36:44.999Z,12.58
2022-12-05T17:39:12.203Z,12.60
2022-12-05T17:41:38.935Z,12.59
2022-12-05T17:44:06.389Z,12.59
2022-12-05T17:46:33.574Z,12.67
2022-12-05T17:49:00.462Z,12.70
2022-12-05T17:51:27.571Z,12.62
2022-12-05T17:53:54.665Z,12.68
2022-12-05T17:56:21.940Z,12.58
2022-12-05T17:58:49.614Z,12.49
2022-12-05T18:01:19.530Z,12.53
2022-12-05T18:03:47.371Z,12.54
2022-12-05T18:06:14.554Z,12.59
2022-12-05T18:08:44.106Z,12.53
2022-12-05T18:11:12.217Z,12.59
2022-12-05T18:13:39.147Z,12.53
2022-12-05T18:16:06.259Z,12.60
2022-12-05T18:18:33.539Z,12.61
2022-12-05T18:21:08.797Z,12.66
2022-12-05T18:23:36.735Z,12.70
2022-12-05T18:26:04.832Z,12.76
2022-12-05T18:28:31.972Z,12.67
2022-12-05T18:31:06.004Z,12.68
2022-12-05T18:33:32.872Z,12.71
2022-12-05T18:36:05.024Z,12.68
2022-12-05T18:38:31.762Z,12.70
2022-12-05T18:41:02.942Z,12.69
2022-12-05T18:43:30.144Z,12.65
2022-12-05T18:45:58.834Z,12.70
2022-12-05T18:48:46.056Z,12.66
2022-12-05T18:51:14.245Z,12.63
2022-12-05T18:53:41.602Z,12.69
2022-12-05T18:56:26.829Z,12.65
2022-12-05T18:58:57.695Z,12.68
2022-12-05T19:01:25.801Z,12.68
2022-12-05T19:03:53.051Z,12.64
2022-12-05T19:06:22.327Z,12.68
2022-12-05T19:08:49.903Z,12.66
2022-12-05T19:11:19.538Z,12.65
2022-12-05T19:13:47.775Z,12.62
2022-12-05T19:16:16.961Z,12.67
2022-12-05T19:18:44.223Z,12.58
2022-12-05T19:21:12.605Z,12.60
2022-12-05T19:23:39.541Z,12.54
2022-12-05T19:26:07.990Z,12.53
2022-12-05T19:28:36.594Z,12.42
2022-12-05T19:31:09.488Z,12.42
2022-12-05T19:33:39.560Z,12.42
2022-12-05T19:36:21.796Z,12.39
2022-12-05T19:38:50.875Z,12.33
2022-12-05T19:41:20.490Z,12.30
2022-12-05T19:43:47.475Z,12.25
2022-12-05T19:46:19.278Z,12.31
2022-12-05T19:48:46.800Z,12.28
2022-12-05T19:51:14.319Z,12.25
2022-12-05T19:53:42.445Z,12.23
2022-12-05T19:56:26.014Z,12.19
2022-12-05T19:58:55.736Z,12.05
2022-12-05T20:01:25.779Z,12.18
2022-12-05T20:03:58.613Z,12.17
2022-12-05T20:06:25.922Z,12.23
2022-12-05T20:08:53.256Z,12.20
2022-12-05T20:11:24.939Z,12.25
2022-12-05T20:13:53.589Z,12.31
2022-12-05T20:16:22.140Z,12.28
2022-12-05T20:18:50.120Z,12.21
2022-12-05T20:21:19.617Z,12.29
2022-12-05T20:23:46.492Z,12.28
2022-12-05T20:26:17.111Z,12.21
2022-12-05T20:28:44.535Z,12.26
2022-12-05T20:31:20.160Z,12.24
2022-12-05T20:33:47.196Z,12.26
2022-12-05T20:36:16.952Z,12.21
2022-12-05T20:38:44.623Z,12.01
2022-12-05T20:41:15.556Z,12.13
2022-12-05T20:43:44.040Z,12.13
2022-12-05T20:46:13.624Z,12.15
2022-12-05T20:48:40.913Z,12.12
2022-12-05T20:51:13.510Z,12.08
2022-12-05T20:53:43.664Z,12.08
2022-12-05T20:56:14.873Z,11.83
2022-12-05T20:58:43.974Z,11.95
2022-12-05T21:01:11.977Z,11.98
2022-12-05T21:03:43.612Z,11.98
2022-12-05T21:06:13.841Z,11.98
2022-12-05T21:08:40.477Z,11.74
2022-12-05T21:11:10.092Z,11.85
2022-12-05T21:13:36.873Z,11.80
2022-12-05T21:16:10.335Z,11.96
2022-12-05T21:18:37.532Z,11.93
2022-12-05T21:21:07.532Z,12.02
2022-12-05T21:23:35.293Z,12.01
2022-12-05T21:26:10.880Z,12.00
2022-12-05T21:28:37.799Z,11.99
2022-12-05T21:31:18.012Z,11.97
2022-12-05T21:33:47.401Z,11.70
2022-12-05T21:36:14.468Z,11.87
2022-12-05T21:38:41.329Z,11.93
2022-12-05T21:41:10.260Z,11.91
2022-12-05T21:43:37.116Z,11.94
2022-12-05T21:46:04.801Z,11.94
2022-12-05T21:48:33.536Z,11.92
2022-12-05T21:51:00.452Z,11.91
2022-12-05T21:53:27.409Z,11.92
2022-12-05T21:56:07.072Z,11.89
2022-12-05T21:58:36.876Z,11.83
2022-12-05T22:01:06.755Z,11.81
2022-12-05T22:03:33.955Z,11.84
2022-12-05T22:06:09.150Z,11.82
2022-12-05T22:08:36.764Z,11.91
2022-12-05T22:11:08.457Z,11.91
2022-12-05T22:13:35.875Z,11.88
2022-12-05T22:16:03.776Z,11.90
2022-12-05T22:18:31.711Z,11.83
2022-12-05T22:21:00.146Z,11.84
2022-12-05T22:23:27.505Z,11.72
2022-12-05T22:26:04.051Z,11.72
2022-12-05T22:28:31.561Z,11.76
2022-12-05T22:31:00.228Z,11.74
2022-12-05T22:33:28.520Z,11.74
2022-12-05T22:35:57.683Z,11.60
2022-12-05T22:38:30.561Z,11.66
2022-12-05T22:41:02.657Z,11.65
2022-12-05T22:43:31.805Z,11.62
2022-12-05T22:46:02.602Z,11.56
2022-12-05T22:48:29.331Z,11.57
2022-12-05T22:50:56.180Z,11.56
2022-12-05T22:53:24.350Z,11.48
2022-12-05T22:55:51.820Z,11.53
2022-12-05T22:58:19.268Z,11.53
2022-12-05T23:00:46.725Z,11.49
2022-12-05T23:03:13.698Z,11.55
2022-12-05T23:05:42.126Z,11.52
2022-12-05T23:08:09.371Z,11.49
2022-12-05T23:10:37.831Z,11.55
2022-12-05T23:13:05.307Z,11.56
2022-12-05T23:15:32.091Z,11.56
2022-12-05T23:17:59.080Z,11.55
2022-12-05T23:20:26.329Z,11.58
2022-12-05T23:22:53.084Z,11.49
2022-12-05T23:25:19.773Z,11.27
2022-12-05T23:27:46.519Z,11.33
2022-12-05T23:30:14.959Z,11.26
2022-12-05T23:32:41.680Z,11.17
2022-12-05T23:35:11.000Z,11.07
2022-12-05T23:37:38.040Z,11.03
2022-12-05T23:40:06.198Z,11.06
2022-12-05T23:42:32.946Z,11.09
2022-12-05T23:44:59.851Z,11.10
2022-12-05T23:47:28.853Z,11.18
2022-12-05T23:49:55.849Z,11.24
2022-12-05T23:52:22.658Z,11.25
2022-12-05T23:54:49.446Z,11.27
2022-12-05T23:57:17.742Z,11.34
2022-12-05T23:59:45.632Z,11.18
